createdAt,value
2022-10-01T05:44:06.155Z,11.07
2022-10-01T05:46:33.011Z,9.90
2022-10-01T05:48:59.590Z,9.80
2022-10-01T05:51:26.222Z,10.20
2022-10-01T05:53:59.003Z,8.07
2022-10-01T05:56:26.149Z,7.70
2022-10-01T05:58:52.714Z,7.65
2022-10-01T06:01:19.252Z,7.03
2022-10-01T06:03:45.801Z,7.13
2022-10-01T06:06:12.835Z,7.55
2022-10-01T06:08:39.335Z,6.93
2022-10-01T06:11:06.365Z,8.03
2022-10-01T06:13:35.541Z,7.43
2022-10-01T06:16:02.139Z,6.97
2022-10-01T06:18:28.735Z,7.47
2022-10-01T06:20:55.364Z,7.35
2022-10-01T06:23:21.873Z,7.70
2022-10-01T06:25:48.410Z,7.40
2022-10-01T06:28:15.501Z,6.77
2022-10-01T06:30:42.674Z,7.45
2022-10-01T06:33:14.734Z,7.85
2022-10-01T06:35:51.867Z,6.93
2022-10-01T06:40:57.395Z,6.20
2022-10-01T06:43:25.609Z,6.70
2022-10-01T06:45:52.755Z,6.38
2022-10-01T06:48:20.270Z,7.00
2022-10-01T06:50:49.320Z,6.90
2022-10-01T06:53:17.422Z,6.60
2022-10-01T06:55:45.170Z,7.03
2022-10-01T06:58:15.826Z,7.15
2022-10-01T07:00:43.884Z,7.43
2022-10-01T07:03:15.894Z,7.60
2022-10-01T07:05:42.807Z,9.85
2022-10-01T07:08:09.443Z,10.68
2022-10-01T07:10:36.205Z,9.00
2022-10-01T07:13:12.981Z,9.57
2022-10-01T07:15:40.333Z,7.63
2022-10-01T07:18:09.537Z,8.52
2022-10-01T07:20:40.468Z,8.40
2022-10-01T07:23:10.624Z,7.00
2022-10-01T07:25:38.930Z,6.95
2022-10-01T07:28:08.034Z,6.53
2022-10-01T07:30:34.928Z,6.57
2022-10-01T07:33:01.534Z,6.72
2022-10-01T07:35:28.549Z,6.22
2022-10-01T07:37:55.460Z,6.53
2022-10-01T07:40:22.025Z,6.88
2022-10-01T07:42:56.369Z,7.10
2022-10-01T07:45:24.237Z,9.25
2022-10-01T07:47:54.976Z,8.13
2022-10-01T07:50:21.689Z,8.48
2022-10-01T07:52:56.195Z,10.98
2022-10-01T07:55:26.472Z,12.52
2022-10-01T07:57:58.111Z,18.77
2022-10-01T08:00:26.506Z,19.63
2022-10-01T08:02:56.093Z,16.23
2022-10-01T08:05:25.656Z,14.00
2022-10-01T08:07:52.431Z,12.20
2022-10-01T08:10:21.116Z,13.52
2022-10-01T08:12:47.682Z,10.48
2022-10-01T08:15:16.308Z,9.73
2022-10-01T08:17:43.483Z,9.02
2022-10-01T08:20:12.925Z,9.45
2022-10-01T08:22:42.182Z,8.52
2022-10-01T08:25:09.876Z,10.02
2022-10-01T08:30:03.816Z,7.38
2022-10-01T08:32:31.251Z,7.00
2022-10-01T08:34:59.980Z,8.25
2022-10-01T08:37:28.408Z,7.88
2022-10-01T08:39:56.511Z,8.63
2022-10-01T08:42:47.833Z,8.50
2022-10-01T08:45:21.825Z,8.45
2022-10-01T08:48:05.767Z,6.90
2022-10-01T08:50:57.541Z,6.32
2022-10-01T08:53:33.843Z,6.65
2022-10-01T08:56:02.440Z,5.77
2022-10-01T08:58:34.958Z,5.75
2022-10-01T09:01:01.592Z,5.43
2022-10-01T09:03:31.598Z,5.10
2022-10-01T09:06:22.291Z,5.40
2022-10-01T09:09:36.498Z,5.03
2022-10-01T09:12:09.030Z,5.43
2022-10-01T09:14:59.273Z,5.05
2022-10-01T09:17:53.296Z,6.60
2022-10-01T09:20:51.774Z,8.20
2022-10-01T09:23:30.246Z,9.10
2022-10-01T09:25:59.570Z,11.82
2022-10-01T09:28:37.741Z,9.10
2022-10-01T09:31:19.938Z,9.73
2022-10-01T09:34:02.051Z,8.63
2022-10-01T09:37:19.456Z,9.60
2022-10-01T09:40:04.943Z,10.15
2022-10-01T09:42:31.802Z,11.70
2022-10-01T09:44:58.966Z,10.52
2022-10-01T09:47:26.363Z,9.63
2022-10-01T09:52:34.604Z,8.80
2022-10-01T09:55:22.270Z,9.32
2022-10-01T09:58:05.066Z,8.52
2022-10-01T10:00:32.495Z,8.27
2022-10-01T10:05:30.131Z,8.57
2022-10-01T10:08:02.430Z,8.10
2022-10-01T10:10:35.688Z,7.65
2022-10-01T10:13:39.350Z,7.20
2022-10-01T10:16:10.644Z,6.72
2022-10-01T10:18:39.514Z,18.23
2022-10-01T10:21:19.490Z,5.90
